sensor_id;sensor_type;location;lat;lon;timestamp;temperature;humidity
20672;DHT22;10495;50.922;4.760;2022-11-18T00:00:13;10.70;89.70
20672;DHT22;10495;50.922;4.760;2022-11-18T00:02:39;10.70;89.60
20672;DHT22;10495;50.922;4.760;2022-11-18T00:05:05;10.70;89.60
20672;DHT22;10495;50.922;4.760;2022-11-18T00:07:31;10.70;89.60
20672;DHT22;10495;50.922;4.760;2022-11-18T00:09:56;10.70;89.40
20672;DHT22;10495;50.922;4.760;2022-11-18T00:12:22;10.80;89.50
20672;DHT22;10495;50.922;4.760;2022-11-18T00:15:06;10.80;88.80
20672;DHT22;10495;50.922;4.760;2022-11-18T00:17:32;10.80;89.30
20672;DHT22;10495;50.922;4.760;2022-11-18T00:19:57;10.70;89.00
20672;DHT22;10495;50.922;4.760;2022-11-18T00:22:23;10.60;89.60
20672;DHT22;10495;50.922;4.760;2022-11-18T00:24:49;10.70;89.30
20672;DHT22;10495;50.922;4.760;2022-11-18T00:27:14;10.70;89.10
20672;DHT22;10495;50.922;4.760;2022-11-18T00:29:40;10.70;88.70
20672;DHT22;10495;50.922;4.760;2022-11-18T00:32:05;10.80;89.10
20672;DHT22;10495;50.922;4.760;2022-11-18T00:34:31;10.90;88.60
20672;DHT22;10495;50.922;4.760;2022-11-18T00:36:57;10.70;89.10
20672;DHT22;10495;50.922;4.760;2022-11-18T00:39:23;10.60;89.40
20672;DHT22;10495;50.922;4.760;2022-11-18T00:41:48;10.70;89.40
20672;DHT22;10495;50.922;4.760;2022-11-18T00:44:33;10.50;89.80
20672;DHT22;10495;50.922;4.760;2022-11-18T00:46:59;10.70;89.60
20672;DHT22;10495;50.922;4.760;2022-11-18T00:49:24;10.70;89.80
20672;DHT22;10495;50.922;4.760;2022-11-18T00:51:50;10.70;89.40
20672;DHT22;10495;50.922;4.760;2022-11-18T00:54:15;10.80;89.40
20672;DHT22;10495;50.922;4.760;2022-11-18T00:56:41;10.70;89.40
20672;DHT22;10495;50.922;4.760;2022-11-18T00:59:07;10.80;89.50
20672;DHT22;10495;50.922;4.760;2022-11-18T01:01:32;10.80;89.60
20672;DHT22;10495;50.922;4.760;2022-11-18T01:03:58;10.80;90.00
20672;DHT22;10495;50.922;4.760;2022-11-18T01:06:24;10.80;89.70
20672;DHT22;10495;50.922;4.760;2022-11-18T01:08:50;10.90;89.20
20672;DHT22;10495;50.922;4.760;2022-11-18T01:11:16;10.80;89.30
20672;DHT22;10495;50.922;4.760;2022-11-18T01:13:59;10.80;89.50
20672;DHT22;10495;50.922;4.760;2022-11-18T01:16:26;10.70;89.70
20672;DHT22;10495;50.922;4.760;2022-11-18T01:18:52;10.70;89.60
20672;DHT22;10495;50.922;4.760;2022-11-18T01:21:18;10.70;89.80
20672;DHT22;10495;50.922;4.760;2022-11-18T01:23:44;10.80;89.50
20672;DHT22;10495;50.922;4.760;2022-11-18T01:26:12;11.00;89.20
20672;DHT22;10495;50.922;4.760;2022-11-18T01:28:38;10.90;88.90
20672;DHT22;10495;50.922;4.760;2022-11-18T01:31:07;10.90;88.80
20672;DHT22;10495;50.922;4.760;2022-11-18T01:33:33;11.00;89.00
20672;DHT22;10495;50.922;4.760;2022-11-18T01:35:59;10.90;88.90
20672;DHT22;10495;50.922;4.760;2022-11-18T01:38:24;10.90;88.30
20672;DHT22;10495;50.922;4.760;2022-11-18T01:40:52;10.90;88.90
20672;DHT22;10495;50.922;4.760;2022-11-18T01:43:19;10.80;89.00
20672;DHT22;10495;50.922;4.760;2022-11-18T01:45:48;10.80;89.00
20672;DHT22;10495;50.922;4.760;2022-11-18T01:48:30;10.80;88.90
20672;DHT22;10495;50.922;4.760;2022-11-18T01:51:20;10.70;89.20
20672;DHT22;10495;50.922;4.760;2022-11-18T01:53:58;10.80;88.50
20672;DHT22;10495;50.922;4.760;2022-11-18T01:56:32;10.80;88.70
20672;DHT22;10495;50.922;4.760;2022-11-18T01:59:05;10.70;89.20
20672;DHT22;10495;50.922;4.760;2022-11-18T02:01:32;10.70;89.60
20672;DHT22;10495;50.922;4.760;2022-11-18T02:03:58;10.70;89.40
20672;DHT22;10495;50.922;4.760;2022-11-18T02:06:23;10.70;89.60
20672;DHT22;10495;50.922;4.760;2022-11-18T02:08:50;10.90;89.40
20672;DHT22;10495;50.922;4.760;2022-11-18T02:11:16;10.70;89.10
20672;DHT22;10495;50.922;4.760;2022-11-18T02:14:02;10.70;89.10
20672;DHT22;10495;50.922;4.760;2022-11-18T02:16:48;10.70;89.20
20672;DHT22;10495;50.922;4.760;2022-11-18T02:30:19;10.70;88.70
20672;DHT22;10495;50.922;4.760;2022-11-18T02:32:58;10.60;88.40
20672;DHT22;10495;50.922;4.760;2022-11-18T02:35:30;10.50;88.60
20672;DHT22;10495;50.922;4.760;2022-11-18T02:38:10;10.40;89.00
20672;DHT22;10495;50.922;4.760;2022-11-18T02:40:47;10.30;89.40
20672;DHT22;10495;50.922;4.760;2022-11-18T02:43:37;10.30;89.40
20672;DHT22;10495;50.922;4.760;2022-11-18T02:46:07;10.10;90.00
20672;DHT22;10495;50.922;4.760;2022-11-18T02:48:37;10.00;90.20
20672;DHT22;10495;50.922;4.760;2022-11-18T02:51:05;10.10;90.20
20672;DHT22;10495;50.922;4.760;2022-11-18T02:53:32;9.90;90.10
20672;DHT22;10495;50.922;4.760;2022-11-18T02:56:00;10.00;90.00
20672;DHT22;10495;50.922;4.760;2022-11-18T02:58:26;9.90;90.10
20672;DHT22;10495;50.922;4.760;2022-11-18T03:00:58;10.00;90.10
20672;DHT22;10495;50.922;4.760;2022-11-18T03:03:32;10.00;90.00
20672;DHT22;10495;50.922;4.760;2022-11-18T03:08:54;10.10;89.80
20672;DHT22;10495;50.922;4.760;2022-11-18T03:11:27;10.30;88.90
20672;DHT22;10495;50.922;4.760;2022-11-18T03:17:01;10.10;89.50
20672;DHT22;10495;50.922;4.760;2022-11-18T03:27:56;9.90;89.60
20672;DHT22;10495;50.922;4.760;2022-11-18T03:30:25;9.80;89.90
20672;DHT22;10495;50.922;4.760;2022-11-18T03:33:02;9.90;89.50
20672;DHT22;10495;50.922;4.760;2022-11-18T03:35:32;9.90;89.30
20672;DHT22;10495;50.922;4.760;2022-11-18T03:38:10;9.90;89.30
20672;DHT22;10495;50.922;4.760;2022-11-18T03:40:40;9.80;89.70
20672;DHT22;10495;50.922;4.760;2022-11-18T03:43:11;9.70;89.80
20672;DHT22;10495;50.922;4.760;2022-11-18T03:45:49;9.70;89.70
20672;DHT22;10495;50.922;4.760;2022-11-18T03:48:17;9.60;89.80
20672;DHT22;10495;50.922;4.760;2022-11-18T03:50:48;9.60;89.90
20672;DHT22;10495;50.922;4.760;2022-11-18T03:53:15;9.50;90.00
20672;DHT22;10495;50.922;4.760;2022-11-18T03:55:46;9.60;89.90
20672;DHT22;10495;50.922;4.760;2022-11-18T03:58:42;9.50;89.80
20672;DHT22;10495;50.922;4.760;2022-11-18T04:01:24;9.40;90.10
20672;DHT22;10495;50.922;4.760;2022-11-18T04:03:53;9.50;90.00
20672;DHT22;10495;50.922;4.760;2022-11-18T04:06:36;9.50;89.80
20672;DHT22;10495;50.922;4.760;2022-11-18T04:09:09;9.40;89.90
20672;DHT22;10495;50.922;4.760;2022-11-18T04:11:43;9.30;90.00
20672;DHT22;10495;50.922;4.760;2022-11-18T04:14:31;9.20;90.30
20672;DHT22;10495;50.922;4.760;2022-11-18T04:16:57;9.10;90.60
20672;DHT22;10495;50.922;4.760;2022-11-18T04:19:23;9.20;90.60
20672;DHT22;10495;50.922;4.760;2022-11-18T04:21:48;9.20;90.40
20672;DHT22;10495;50.922;4.760;2022-11-18T04:24:14;9.20;90.50
20672;DHT22;10495;50.922;4.760;2022-11-18T04:26:40;9.20;90.60
20672;DHT22;10495;50.922;4.760;2022-11-18T04:29:06;9.00;90.70
20672;DHT22;10495;50.922;4.760;2022-11-18T04:31:31;9.10;90.70
20672;DHT22;10495;50.922;4.760;2022-11-18T04:33:57;9.00;90.80
20672;DHT22;10495;50.922;4.760;2022-11-18T04:36:23;9.00;91.00
20672;DHT22;10495;50.922;4.760;2022-11-18T04:38:48;9.10;90.80
20672;DHT22;10495;50.922;4.760;2022-11-18T04:41:14;9.00;90.80
20672;DHT22;10495;50.922;4.760;2022-11-18T04:43:40;9.10;91.10
20672;DHT22;10495;50.922;4.760;2022-11-18T04:46:06;8.90;91.30
20672;DHT22;10495;50.922;4.760;2022-11-18T04:48:32;8.90;91.40
20672;DHT22;10495;50.922;4.760;2022-11-18T04:51:01;8.90;91.60
20672;DHT22;10495;50.922;4.760;2022-11-18T04:53:27;8.80;91.50
20672;DHT22;10495;50.922;4.760;2022-11-18T04:55:52;8.80;91.50
20672;DHT22;10495;50.922;4.760;2022-11-18T04:58:18;8.80;91.60
20672;DHT22;10495;50.922;4.760;2022-11-18T05:00:44;8.80;91.60
20672;DHT22;10495;50.922;4.760;2022-11-18T05:03:09;8.70;91.70
20672;DHT22;10495;50.922;4.760;2022-11-18T05:05:35;8.70;92.10
20672;DHT22;10495;50.922;4.760;2022-11-18T05:08:00;8.70;91.90
20672;DHT22;10495;50.922;4.760;2022-11-18T05:10:26;8.60;91.90
20672;DHT22;10495;50.922;4.760;2022-11-18T05:12:51;8.60;92.10
20672;DHT22;10495;50.922;4.760;2022-11-18T05:15:19;8.60;92.20
20672;DHT22;10495;50.922;4.760;2022-11-18T05:17:46;8.60;92.10
20672;DHT22;10495;50.922;4.760;2022-11-18T05:20:12;8.50;92.20
20672;DHT22;10495;50.922;4.760;2022-11-18T05:22:38;8.60;92.10
20672;DHT22;10495;50.922;4.760;2022-11-18T05:25:05;8.50;92.20
20672;DHT22;10495;50.922;4.760;2022-11-18T05:27:31;8.40;92.40
20672;DHT22;10495;50.922;4.760;2022-11-18T05:29:57;8.50;92.50
20672;DHT22;10495;50.922;4.760;2022-11-18T05:32:22;8.40;92.30
20672;DHT22;10495;50.922;4.760;2022-11-18T05:34:48;8.50;92.40
20672;DHT22;10495;50.922;4.760;2022-11-18T05:37:14;8.40;92.40
20672;DHT22;10495;50.922;4.760;2022-11-18T05:39:39;8.40;92.50
20672;DHT22;10495;50.922;4.760;2022-11-18T05:42:05;8.40;92.50
20672;DHT22;10495;50.922;4.760;2022-11-18T05:44:49;8.40;92.30
20672;DHT22;10495;50.922;4.760;2022-11-18T05:47:16;8.50;92.30
20672;DHT22;10495;50.922;4.760;2022-11-18T05:49:42;8.50;92.30
20672;DHT22;10495;50.922;4.760;2022-11-18T05:52:07;8.60;92.30
20672;DHT22;10495;50.922;4.760;2022-11-18T05:54:33;8.60;92.10
20672;DHT22;10495;50.922;4.760;2022-11-18T05:56:59;8.50;92.10
20672;DHT22;10495;50.922;4.760;2022-11-18T05:59:24;8.60;92.10
20672;DHT22;10495;50.922;4.760;2022-11-18T06:02:00;8.50;92.10
20672;DHT22;10495;50.922;4.760;2022-11-18T06:04:36;8.50;92.30
20672;DHT22;10495;50.922;4.760;2022-11-18T06:07:23;8.50;92.30
20672;DHT22;10495;50.922;4.760;2022-11-18T06:09:54;8.60;92.20
20672;DHT22;10495;50.922;4.760;2022-11-18T06:12:24;8.40;92.20
20672;DHT22;10495;50.922;4.760;2022-11-18T06:15:00;8.50;92.20
20672;DHT22;10495;50.922;4.760;2022-11-18T06:17:42;8.50;92.20
20672;DHT22;10495;50.922;4.760;2022-11-18T06:20:09;8.40;92.30
20672;DHT22;10495;50.922;4.760;2022-11-18T06:22:35;8.40;92.40
20672;DHT22;10495;50.922;4.760;2022-11-18T06:25:02;8.30;92.30
20672;DHT22;10495;50.922;4.760;2022-11-18T06:27:28;8.30;92.40
20672;DHT22;10495;50.922;4.760;2022-11-18T06:29:54;8.50;92.50
20672;DHT22;10495;50.922;4.760;2022-11-18T06:32:19;8.50;92.10
20672;DHT22;10495;50.922;4.760;2022-11-18T06:34:45;8.40;92.00
20672;DHT22;10495;50.922;4.760;2022-11-18T06:37:15;8.40;92.10
20672;DHT22;10495;50.922;4.760;2022-11-18T06:39:41;8.30;92.30
20672;DHT22;10495;50.922;4.760;2022-11-18T06:42:06;8.50;92.40
20672;DHT22;10495;50.922;4.760;2022-11-18T06:44:32;8.40;92.00
20672;DHT22;10495;50.922;4.760;2022-11-18T06:46:58;8.40;92.30
20672;DHT22;10495;50.922;4.760;2022-11-18T06:49:25;8.40;92.20
20672;DHT22;10495;50.922;4.760;2022-11-18T06:51:51;8.30;92.20
20672;DHT22;10495;50.922;4.760;2022-11-18T06:54:17;8.30;92.40
20672;DHT22;10495;50.922;4.760;2022-11-18T06:56:42;8.30;92.50
20672;DHT22;10495;50.922;4.760;2022-11-18T06:59:08;8.30;92.50
20672;DHT22;10495;50.922;4.760;2022-11-18T07:01:37;8.10;92.80
20672;DHT22;10495;50.922;4.760;2022-11-18T07:04:03;8.10;92.80
20672;DHT22;10495;50.922;4.760;2022-11-18T07:06:31;8.10;92.90
20672;DHT22;10495;50.922;4.760;2022-11-18T07:09:00;8.20;92.90
20672;DHT22;10495;50.922;4.760;2022-11-18T07:11:26;8.20;92.80
20672;DHT22;10495;50.922;4.760;2022-11-18T07:13:52;8.20;92.70
20672;DHT22;10495;50.922;4.760;2022-11-18T07:16:20;8.30;92.40
20672;DHT22;10495;50.922;4.760;2022-11-18T07:18:47;8.30;92.30
20672;DHT22;10495;50.922;4.760;2022-11-18T07:21:16;8.30;92.30
20672;DHT22;10495;50.922;4.760;2022-11-18T07:23:42;8.30;92.40
20672;DHT22;10495;50.922;4.760;2022-11-18T07:26:08;8.30;92.40
20672;DHT22;10495;50.922;4.760;2022-11-18T07:28:34;8.20;92.50
20672;DHT22;10495;50.922;4.760;2022-11-18T07:31:01;8.40;92.50
20672;DHT22;10495;50.922;4.760;2022-11-18T07:33:28;8.40;92.30
20672;DHT22;10495;50.922;4.760;2022-11-18T07:35:54;8.40;92.30
20672;DHT22;10495;50.922;4.760;2022-11-18T07:38:19;8.40;92.30
20672;DHT22;10495;50.922;4.760;2022-11-18T07:40:45;8.50;92.40
20672;DHT22;10495;50.922;4.760;2022-11-18T07:43:10;8.50;92.40
20672;DHT22;10495;50.922;4.760;2022-11-18T07:45:36;8.60;92.40
20672;DHT22;10495;50.922;4.760;2022-11-18T07:48:02;8.70;92.40
20672;DHT22;10495;50.922;4.760;2022-11-18T07:50:28;8.70;92.40
20672;DHT22;10495;50.922;4.760;2022-11-18T07:52:57;8.80;92.30
20672;DHT22;10495;50.922;4.760;2022-11-18T07:55:23;9.00;92.20
20672;DHT22;10495;50.922;4.760;2022-11-18T07:57:48;9.00;92.20
20672;DHT22;10495;50.922;4.760;2022-11-18T08:00:14;9.10;92.30
20672;DHT22;10495;50.922;4.760;2022-11-18T08:02:40;9.30;92.10
20672;DHT22;10495;50.922;4.760;2022-11-18T08:05:08;9.40;91.90
20672;DHT22;10495;50.922;4.760;2022-11-18T08:07:34;9.60;91.70
20672;DHT22;10495;50.922;4.760;2022-11-18T08:09:59;9.60;91.60
20672;DHT22;10495;50.922;4.760;2022-11-18T08:12:27;9.80;91.30
20672;DHT22;10495;50.922;4.760;2022-11-18T08:14:55;9.80;91.10
20672;DHT22;10495;50.922;4.760;2022-11-18T08:17:21;9.80;91.10
20672;DHT22;10495;50.922;4.760;2022-11-18T08:19:47;9.90;91.10
20672;DHT22;10495;50.922;4.760;2022-11-18T08:22:13;10.00;90.90
20672;DHT22;10495;50.922;4.760;2022-11-18T08:24:41;10.10;90.70
20672;DHT22;10495;50.922;4.760;2022-11-18T08:27:06;10.30;90.60
20672;DHT22;10495;50.922;4.760;2022-11-18T08:29:32;10.50;90.30
20672;DHT22;10495;50.922;4.760;2022-11-18T08:31:58;10.50;90.20
20672;DHT22;10495;50.922;4.760;2022-11-18T08:34:23;10.30;90.40
20672;DHT22;10495;50.922;4.760;2022-11-18T08:36:50;10.30;90.20
20672;DHT22;10495;50.922;4.760;2022-11-18T08:39:16;10.30;90.40
20672;DHT22;10495;50.922;4.760;2022-11-18T08:41:42;10.30;90.60
20672;DHT22;10495;50.922;4.760;2022-11-18T08:44:13;10.30;90.40
20672;DHT22;10495;50.922;4.760;2022-11-18T08:46:40;10.40;90.40
20672;DHT22;10495;50.922;4.760;2022-11-18T08:49:05;10.50;90.20
20672;DHT22;10495;50.922;4.760;2022-11-18T08:51:31;10.60;90.00
20672;DHT22;10495;50.922;4.760;2022-11-18T08:53:57;10.40;90.00
20672;DHT22;10495;50.922;4.760;2022-11-18T08:56:23;10.30;90.30
20672;DHT22;10495;50.922;4.760;2022-11-18T08:58:50;10.30;90.40
20672;DHT22;10495;50.922;4.760;2022-11-18T09:01:15;10.20;90.50
20672;DHT22;10495;50.922;4.760;2022-11-18T09:03:41;10.30;90.50
20672;DHT22;10495;50.922;4.760;2022-11-18T09:06:12;10.10;90.60
20672;DHT22;10495;50.922;4.760;2022-11-18T09:08:38;10.10;90.90
20672;DHT22;10495;50.922;4.760;2022-11-18T09:11:13;10.10;90.90
20672;DHT22;10495;50.922;4.760;2022-11-18T09:13:38;10.10;90.90
20672;DHT22;10495;50.922;4.760;2022-11-18T09:16:05;10.10;90.80
20672;DHT22;10495;50.922;4.760;2022-11-18T09:18:32;10.20;90.80
20672;DHT22;10495;50.922;4.760;2022-11-18T09:21:04;10.20;90.70
20672;DHT22;10495;50.922;4.760;2022-11-18T09:23:30;10.30;90.60
20672;DHT22;10495;50.922;4.760;2022-11-18T09:26:01;10.30;90.70
20672;DHT22;10495;50.922;4.760;2022-11-18T09:28:27;10.40;90.50
20672;DHT22;10495;50.922;4.760;2022-11-18T09:30:53;10.40;90.40
20672;DHT22;10495;50.922;4.760;2022-11-18T09:33:19;10.50;90.50
20672;DHT22;10495;50.922;4.760;2022-11-18T09:35:45;10.50;90.50
20672;DHT22;10495;50.922;4.760;2022-11-18T09:38:11;10.40;90.40
20672;DHT22;10495;50.922;4.760;2022-11-18T09:40:55;10.60;90.30
20672;DHT22;10495;50.922;4.760;2022-11-18T09:43:49;10.50;90.40
20672;DHT22;10495;50.922;4.760;2022-11-18T09:46:21;10.60;90.40
20672;DHT22;10495;50.922;4.760;2022-11-18T09:48:50;10.70;90.30
20672;DHT22;10495;50.922;4.760;2022-11-18T09:51:42;10.70;90.30
20672;DHT22;10495;50.922;4.760;2022-11-18T09:54:10;10.70;90.20
20672;DHT22;10495;50.922;4.760;2022-11-18T09:56:39;10.70;90.30
20672;DHT22;10495;50.922;4.760;2022-11-18T09:59:05;10.70;90.40
20672;DHT22;10495;50.922;4.760;2022-11-18T10:01:31;11.00;89.90
20672;DHT22;10495;50.922;4.760;2022-11-18T10:03:56;11.10;89.50
20672;DHT22;10495;50.922;4.760;2022-11-18T10:06:27;11.10;89.50
20672;DHT22;10495;50.922;4.760;2022-11-18T10:09:03;11.20;89.40
20672;DHT22;10495;50.922;4.760;2022-11-18T10:11:37;11.20;88.90
20672;DHT22;10495;50.922;4.760;2022-11-18T10:17:07;11.20;89.30
20672;DHT22;10495;50.922;4.760;2022-11-18T10:19:44;11.20;89.40
20672;DHT22;10495;50.922;4.760;2022-11-18T10:22:32;11.20;89.50
20672;DHT22;10495;50.922;4.760;2022-11-18T10:25:11;11.50;88.60
20672;DHT22;10495;50.922;4.760;2022-11-18T10:27:40;11.70;87.60
20672;DHT22;10495;50.922;4.760;2022-11-18T10:30:23;11.70;87.10
20672;DHT22;10495;50.922;4.760;2022-11-18T10:35:34;11.60;87.50
20672;DHT22;10495;50.922;4.760;2022-11-18T10:38:23;11.70;88.20
20672;DHT22;10495;50.922;4.760;2022-11-18T10:41:00;11.70;87.70
20672;DHT22;10495;50.922;4.760;2022-11-18T10:43:51;11.60;88.00
20672;DHT22;10495;50.922;4.760;2022-11-18T10:46:26;11.40;88.40
20672;DHT22;10495;50.922;4.760;2022-11-18T10:51:34;11.60;88.30
20672;DHT22;10495;50.922;4.760;2022-11-18T10:54:14;11.80;87.70
20672;DHT22;10495;50.922;4.760;2022-11-18T10:56:52;11.90;88.00
20672;DHT22;10495;50.922;4.760;2022-11-18T11:02:14;11.80;88.00
20672;DHT22;10495;50.922;4.760;2022-11-18T11:04:41;11.70;87.70
20672;DHT22;10495;50.922;4.760;2022-11-18T11:07:37;11.90;87.80
20672;DHT22;10495;50.922;4.760;2022-11-18T11:12:41;12.00;87.20
20672;DHT22;10495;50.922;4.760;2022-11-18T11:15:18;12.00;86.90
20672;DHT22;10495;50.922;4.760;2022-11-18T11:20:52;12.40;85.60
20672;DHT22;10495;50.922;4.760;2022-11-18T11:23:17;12.30;86.10
20672;DHT22;10495;50.922;4.760;2022-11-18T11:26:27;12.20;86.80
20672;DHT22;10495;50.922;4.760;2022-11-18T11:28:44;12.20;86.80
20672;DHT22;10495;50.922;4.760;2022-11-18T11:31:44;12.30;86.40
20672;DHT22;10495;50.922;4.760;2022-11-18T11:34:23;12.40;86.30
20672;DHT22;10495;50.922;4.760;2022-11-18T11:37:16;12.40;86.10
20672;DHT22;10495;50.922;4.760;2022-11-18T11:43:02;12.40;86.10
20672;DHT22;10495;50.922;4.760;2022-11-18T11:51:46;12.50;85.70
20672;DHT22;10495;50.922;4.760;2022-11-18T12:00:30;12.30;85.50
20672;DHT22;10495;50.922;4.760;2022-11-18T12:05:35;12.50;85.70
20672;DHT22;10495;50.922;4.760;2022-11-18T12:08:03;12.50;85.60
20672;DHT22;10495;50.922;4.760;2022-11-18T12:18:57;12.60;85.60
20672;DHT22;10495;50.922;4.760;2022-11-18T12:26:56;12.80;84.40
20672;DHT22;10495;50.922;4.760;2022-11-18T12:29:23;12.70;84.10
20672;DHT22;10495;50.922;4.760;2022-11-18T12:31:59;12.80;84.00
20672;DHT22;10495;50.922;4.760;2022-11-18T12:39:55;12.60;83.80
20672;DHT22;10495;50.922;4.760;2022-11-18T12:42:46;12.50;84.00
20672;DHT22;10495;50.922;4.760;2022-11-18T12:51:02;12.40;84.70
20672;DHT22;10495;50.922;4.760;2022-11-18T12:53:53;12.30;85.30
20672;DHT22;10495;50.922;4.760;2022-11-18T12:56:29;12.30;85.70
20672;DHT22;10495;50.922;4.760;2022-11-18T12:58:59;12.20;85.90
20672;DHT22;10495;50.922;4.760;2022-11-18T13:01:30;12.40;85.70
20672;DHT22;10495;50.922;4.760;2022-11-18T13:04:15;12.40;85.20
20672;DHT22;10495;50.922;4.760;2022-11-18T13:06:42;12.50;85.30
20672;DHT22;10495;50.922;4.760;2022-11-18T13:09:16;12.30;85.50
20672;DHT22;10495;50.922;4.760;2022-11-18T13:11:53;12.30;86.10
20672;DHT22;10495;50.922;4.760;2022-11-18T13:14:28;12.60;85.00
20672;DHT22;10495;50.922;4.760;2022-11-18T13:20:31;12.40;85.90
20672;DHT22;10495;50.922;4.760;2022-11-18T13:26:05;12.20;86.80
20672;DHT22;10495;50.922;4.760;2022-11-18T13:34:26;12.00;87.90
20672;DHT22;10495;50.922;4.760;2022-11-18T13:36:53;12.10;87.70
20672;DHT22;10495;50.922;4.760;2022-11-18T13:39:32;12.10;87.80
20672;DHT22;10495;50.922;4.760;2022-11-18T13:42:00;12.10;88.60
20672;DHT22;10495;50.922;4.760;2022-11-18T13:44:29;12.00;88.70
20672;DHT22;10495;50.922;4.760;2022-11-18T13:47:19;12.10;88.70
20672;DHT22;10495;50.922;4.760;2022-11-18T13:52:57;11.90;89.70
20672;DHT22;10495;50.922;4.760;2022-11-18T13:55:30;12.00;89.50
20672;DHT22;10495;50.922;4.760;2022-11-18T14:00:41;12.10;89.90
20672;DHT22;10495;50.922;4.760;2022-11-18T14:03:24;12.10;89.60
20672;DHT22;10495;50.922;4.760;2022-11-18T14:05:54;12.10;90.00
20672;DHT22;10495;50.922;4.760;2022-11-18T14:08:32;12.10;90.00
20672;DHT22;10495;50.922;4.760;2022-11-18T14:10:59;12.10;90.10
20672;DHT22;10495;50.922;4.760;2022-11-18T14:13:36;12.10;90.00
20672;DHT22;10495;50.922;4.760;2022-11-18T14:18:50;12.30;90.00
20672;DHT22;10495;50.922;4.760;2022-11-18T14:21:36;12.30;89.80
20672;DHT22;10495;50.922;4.760;2022-11-18T14:24:04;12.20;90.00
20672;DHT22;10495;50.922;4.760;2022-11-18T14:26:31;12.10;90.10
20672;DHT22;10495;50.922;4.760;2022-11-18T14:29:00;12.20;90.30
20672;DHT22;10495;50.922;4.760;2022-11-18T14:31:30;12.10;90.30
20672;DHT22;10495;50.922;4.760;2022-11-18T14:34:25;12.20;90.30
20672;DHT22;10495;50.922;4.760;2022-11-18T14:36:52;12.20;90.10
20672;DHT22;10495;50.922;4.760;2022-11-18T14:41:50;12.30;90.00
20672;DHT22;10495;50.922;4.760;2022-11-18T14:44:20;12.20;90.20
20672;DHT22;10495;50.922;4.760;2022-11-18T14:46:51;12.30;90.10
20672;DHT22;10495;50.922;4.760;2022-11-18T14:49:20;12.20;90.00
20672;DHT22;10495;50.922;4.760;2022-11-18T14:51:46;12.10;90.10
20672;DHT22;10495;50.922;4.760;2022-11-18T14:54:14;12.10;90.20
20672;DHT22;10495;50.922;4.760;2022-11-18T14:56:40;12.00;90.30
20672;DHT22;10495;50.922;4.760;2022-11-18T14:59:06;12.10;90.30
20672;DHT22;10495;50.922;4.760;2022-11-18T15:01:31;11.90;90.40
20672;DHT22;10495;50.922;4.760;2022-11-18T15:03:57;12.00;90.50
20672;DHT22;10495;50.922;4.760;2022-11-18T15:06:23;11.90;90.50
20672;DHT22;10495;50.922;4.760;2022-11-18T15:08:51;11.90;90.50
20672;DHT22;10495;50.922;4.760;2022-11-18T15:11:17;12.00;90.50
20672;DHT22;10495;50.922;4.760;2022-11-18T15:13:43;11.90;90.50
20672;DHT22;10495;50.922;4.760;2022-11-18T15:16:29;11.90;90.50
20672;DHT22;10495;50.922;4.760;2022-11-18T15:18:57;11.90;90.60
20672;DHT22;10495;50.922;4.760;2022-11-18T15:21:24;11.90;90.60
20672;DHT22;10495;50.922;4.760;2022-11-18T15:23:50;11.90;90.60
20672;DHT22;10495;50.922;4.760;2022-11-18T15:26:33;11.90;90.70
20672;DHT22;10495;50.922;4.760;2022-11-18T15:29:00;11.80;90.60
20672;DHT22;10495;50.922;4.760;2022-11-18T15:31:26;11.80;90.80
20672;DHT22;10495;50.922;4.760;2022-11-18T15:33:52;11.80;90.80
20672;DHT22;10495;50.922;4.760;2022-11-18T15:36:23;11.80;90.70
20672;DHT22;10495;50.922;4.760;2022-11-18T15:38:50;11.80;90.60
20672;DHT22;10495;50.922;4.760;2022-11-18T15:41:22;11.80;90.60
20672;DHT22;10495;50.922;4.760;2022-11-18T15:43:49;11.80;90.70
20672;DHT22;10495;50.922;4.760;2022-11-18T15:46:17;11.80;90.80
20672;DHT22;10495;50.922;4.760;2022-11-18T15:48:46;12.00;90.50
20672;DHT22;10495;50.922;4.760;2022-11-18T15:51:13;11.90;90.60
20672;DHT22;10495;50.922;4.760;2022-11-18T15:53:39;11.70;91.40
20672;DHT22;10495;50.922;4.760;2022-11-18T16:01:20;11.70;91.20
20672;DHT22;10495;50.922;4.760;2022-11-18T16:03:46;11.80;91.20
20672;DHT22;10495;50.922;4.760;2022-11-18T16:06:11;11.90;91.20
20672;DHT22;10495;50.922;4.760;2022-11-18T16:08:37;11.90;90.70
20672;DHT22;10495;50.922;4.760;2022-11-18T16:11:03;11.90;90.90
20672;DHT22;10495;50.922;4.760;2022-11-18T16:13:46;11.80;90.90
20672;DHT22;10495;50.922;4.760;2022-11-18T16:16:22;11.80;90.90
20672;DHT22;10495;50.922;4.760;2022-11-18T16:18:48;11.80;91.00
20672;DHT22;10495;50.922;4.760;2022-11-18T16:21:13;12.10;90.60
20672;DHT22;10495;50.922;4.760;2022-11-18T16:23:39;12.10;90.30
20672;DHT22;10495;50.922;4.760;2022-11-18T16:26:05;11.90;90.70
20672;DHT22;10495;50.922;4.760;2022-11-18T16:28:30;11.80;91.20
20672;DHT22;10495;50.922;4.760;2022-11-18T16:30:56;11.80;91.00
20672;DHT22;10495;50.922;4.760;2022-11-18T16:33:40;11.80;90.90
20672;DHT22;10495;50.922;4.760;2022-11-18T16:36:06;11.60;91.00
20672;DHT22;10495;50.922;4.760;2022-11-18T16:38:32;11.80;90.90
20672;DHT22;10495;50.922;4.760;2022-11-18T16:40:58;11.90;90.70
20672;DHT22;10495;50.922;4.760;2022-11-18T16:43:24;11.80;90.80
20672;DHT22;10495;50.922;4.760;2022-11-18T16:45:54;11.70;90.80
20672;DHT22;10495;50.922;4.760;2022-11-18T16:48:20;11.70;91.10
20672;DHT22;10495;50.922;4.760;2022-11-18T16:51:06;11.60;91.30
20672;DHT22;10495;50.922;4.760;2022-11-18T16:53:42;11.90;91.20
20672;DHT22;10495;50.922;4.760;2022-11-18T16:56:08;12.10;90.70
20672;DHT22;10495;50.922;4.760;2022-11-18T16:58:33;11.80;90.90
20672;DHT22;10495;50.922;4.760;2022-11-18T17:01:03;11.50;91.60
20672;DHT22;10495;50.922;4.760;2022-11-18T17:03:33;11.30;92.00
20672;DHT22;10495;50.922;4.760;2022-11-18T17:05:59;11.70;91.70
20672;DHT22;10495;50.922;4.760;2022-11-18T17:08:25;11.60;91.60
20672;DHT22;10495;50.922;4.760;2022-11-18T17:10:50;11.60;91.60
20672;DHT22;10495;50.922;4.760;2022-11-18T17:13:16;11.40;92.00
20672;DHT22;10495;50.922;4.760;2022-11-18T17:15:41;11.20;92.10
20672;DHT22;10495;50.922;4.760;2022-11-18T17:18:07;11.20;92.20
20672;DHT22;10495;50.922;4.760;2022-11-18T17:20:34;11.20;92.50
20672;DHT22;10495;50.922;4.760;2022-11-18T17:23:00;11.30;92.20
20672;DHT22;10495;50.922;4.760;2022-11-18T17:25:25;11.30;92.60
20672;DHT22;10495;50.922;4.760;2022-11-18T17:27:51;11.60;91.80
20672;DHT22;10495;50.922;4.760;2022-11-18T17:30:16;11.80;91.60
20672;DHT22;10495;50.922;4.760;2022-11-18T17:32:42;11.50;91.70
20672;DHT22;10495;50.922;4.760;2022-11-18T17:35:08;11.10;92.50
20672;DHT22;10495;50.922;4.760;2022-11-18T17:37:33;10.90;92.90
20672;DHT22;10495;50.922;4.760;2022-11-18T17:39:59;10.80;92.90
20672;DHT22;10495;50.922;4.760;2022-11-18T17:42:25;10.90;93.00
20672;DHT22;10495;50.922;4.760;2022-11-18T17:44:51;10.90;92.70